Terminal Aerodrome Forecast
Issued by NWS Aberdeen, SD

Home | Current Version | Previous Version | Text Only | Print | Product List | Glossary On
Versions: 1 2 3 4 5 6 7 8 9 10 11 12 13 14 15 16 17 18 19 20 21 22 23 24 25 26 27 28 29 30 31 32 33 34 35 36 37 38 39
000
FTAK31 PAFA 210211 AAA
TAFABR
TAF AMD
PABR 210211Z 2102/2124 36016G23KT 1 1/2SM -SN BLSN FEW015 BKN029
      OVC035
     FM210700 36014KT 4SM -SN BLSN BR OVC025
     FM211400 14012KT 4SM -SN BR OVC025=

USA.gov is the U.S. government's official web portal to all federal, state and local government web resources and services.